Terminal Aerodrome Forecast
Issued by NWS Dodge City, KS

Home | Current Version | Previous Version | Text Only | Print | Product List | Glossary Off
Versions: 1 2 3 4 5 6 7 8 9 10 11 12 13 14 15 16 17 18 19 20 21 22 23 24 25 26 27 28 29 30 31 32 33 34 35 36 37 38 39

896
FTUS43 KDDC 210534
TAFDDC
TAF
KDDC 210534Z 2106/2206 09012G19KT P6SM -SHRA OVC025
     FM211000 07012G19KT P6SM -RA OVC015
     FM211200 06012G17KT P6SM -RA OVC008
      TEMPO 2112/2115 3SM -SHRA OVC005
     FM211600 03012KT 5SM -SHRA OVC008
     FM220200 03005KT P6SM OVC003=

USA.gov is the U.S. government's official web portal to all federal, state and local government web resources and services.